sensor_id;sensor_type;location;lat;lon;timestamp;P1;durP1;ratioP1;P2;durP2;ratioP2
18194;SDS011;9223;50.988;3.162;2024-03-29T00:00:34;1.23;;;0.50;;
18194;SDS011;9223;50.988;3.162;2024-03-29T00:06:37;1.92;;;0.70;;
18194;SDS011;9223;50.988;3.162;2024-03-29T00:12:39;4.57;;;0.80;;
18194;SDS011;9223;50.988;3.162;2024-03-29T00:18:40;1.45;;;0.45;;
18194;SDS011;9223;50.988;3.162;2024-03-29T00:24:43;1.88;;;0.50;;
18194;SDS011;9223;50.988;3.162;2024-03-29T00:30:45;2.05;;;0.40;;
18194;SDS011;9223;50.988;3.162;2024-03-29T00:36:46;1.15;;;0.60;;
18194;SDS011;9223;50.988;3.162;2024-03-29T00:42:49;0.80;;;0.50;;
18194;SDS011;9223;50.988;3.162;2024-03-29T00:48:51;2.90;;;0.75;;
18194;SDS011;9223;50.988;3.162;2024-03-29T00:54:52;0.90;;;0.40;;
18194;SDS011;9223;50.988;3.162;2024-03-29T01:00:55;0.43;;;0.38;;
18194;SDS011;9223;50.988;3.162;2024-03-29T01:06:57;2.80;;;0.50;;
18194;SDS011;9223;50.988;3.162;2024-03-29T01:12:58;1.88;;;0.52;;
18194;SDS011;9223;50.988;3.162;2024-03-29T01:19:01;1.63;;;0.50;;
18194;SDS011;9223;50.988;3.162;2024-03-29T01:25:03;2.97;;;0.60;;
18194;SDS011;9223;50.988;3.162;2024-03-29T01:31:05;3.03;;;0.60;;
18194;SDS011;9223;50.988;3.162;2024-03-29T01:37:08;1.23;;;0.50;;
18194;SDS011;9223;50.988;3.162;2024-03-29T01:43:10;0.75;;;0.45;;
18194;SDS011;9223;50.988;3.162;2024-03-29T01:49:15;2.15;;;0.60;;
18194;SDS011;9223;50.988;3.162;2024-03-29T01:55:20;1.13;;;0.50;;
18194;SDS011;9223;50.988;3.162;2024-03-29T02:01:22;0.70;;;0.40;;
18194;SDS011;9223;50.988;3.162;2024-03-29T02:07:26;0.70;;;0.35;;
18194;SDS011;9223;50.988;3.162;2024-03-29T02:13:31;1.10;;;0.60;;
18194;SDS011;9223;50.988;3.162;2024-03-29T02:19:34;0.68;;;0.40;;
18194;SDS011;9223;50.988;3.162;2024-03-29T02:25:38;1.35;;;0.40;;
18194;SDS011;9223;50.988;3.162;2024-03-29T02:31:41;1.30;;;0.40;;
18194;SDS011;9223;50.988;3.162;2024-03-29T02:37:43;1.55;;;0.38;;
18194;SDS011;9223;50.988;3.162;2024-03-29T02:43:47;2.08;;;0.40;;
18194;SDS011;9223;50.988;3.162;2024-03-29T02:49:50;0.65;;;0.40;;
18194;SDS011;9223;50.988;3.162;2024-03-29T02:55:52;2.58;;;0.60;;
18194;SDS011;9223;50.988;3.162;2024-03-29T03:01:56;1.00;;;0.40;;
18194;SDS011;9223;50.988;3.162;2024-03-29T03:07:59;0.90;;;0.40;;
18194;SDS011;9223;50.988;3.162;2024-03-29T03:14:19;1.48;;;0.50;;
18194;SDS011;9223;50.988;3.162;2024-03-29T03:20:23;1.20;;;0.50;;
18194;SDS011;9223;50.988;3.162;2024-03-29T03:26:28;0.38;;;0.17;;
18194;SDS011;9223;50.988;3.162;2024-03-29T03:32:31;0.88;;;0.40;;
18194;SDS011;9223;50.988;3.162;2024-03-29T03:38:34;0.50;;;0.28;;
18194;SDS011;9223;50.988;3.162;2024-03-29T03:44:39;0.80;;;0.50;;
18194;SDS011;9223;50.988;3.162;2024-03-29T03:50:41;1.05;;;0.65;;
18194;SDS011;9223;50.988;3.162;2024-03-29T03:56:45;0.60;;;0.52;;
18194;SDS011;9223;50.988;3.162;2024-03-29T04:02:47;0.90;;;0.30;;
18194;SDS011;9223;50.988;3.162;2024-03-29T04:08:50;0.60;;;0.30;;
18194;SDS011;9223;50.988;3.162;2024-03-29T04:14:54;0.77;;;0.47;;
18194;SDS011;9223;50.988;3.162;2024-03-29T04:20:57;1.00;;;0.45;;
18194;SDS011;9223;50.988;3.162;2024-03-29T04:27:00;1.08;;;0.77;;
18194;SDS011;9223;50.988;3.162;2024-03-29T04:33:05;1.08;;;0.60;;
18194;SDS011;9223;50.988;3.162;2024-03-29T04:39:08;1.42;;;0.50;;
18194;SDS011;9223;50.988;3.162;2024-03-29T04:45:10;4.10;;;0.63;;
18194;SDS011;9223;50.988;3.162;2024-03-29T04:51:14;1.65;;;0.45;;
18194;SDS011;9223;50.988;3.162;2024-03-29T04:57:17;1.65;;;0.60;;
18194;SDS011;9223;50.988;3.162;2024-03-29T05:03:20;1.25;;;0.68;;
18194;SDS011;9223;50.988;3.162;2024-03-29T05:09:24;1.63;;;0.85;;
18194;SDS011;9223;50.988;3.162;2024-03-29T05:15:27;1.67;;;0.70;;
18194;SDS011;9223;50.988;3.162;2024-03-29T05:21:29;2.08;;;0.80;;
18194;SDS011;9223;50.988;3.162;2024-03-29T05:27:33;2.15;;;1.70;;
18194;SDS011;9223;50.988;3.162;2024-03-29T05:33:36;5.28;;;3.08;;
18194;SDS011;9223;50.988;3.162;2024-03-29T05:39:39;1.90;;;1.70;;
18194;SDS011;9223;50.988;3.162;2024-03-29T05:45:43;2.80;;;1.05;;
18194;SDS011;9223;50.988;3.162;2024-03-29T05:51:45;2.13;;;1.70;;
18194;SDS011;9223;50.988;3.162;2024-03-29T05:57:48;2.90;;;1.50;;
18194;SDS011;9223;50.988;3.162;2024-03-29T06:03:52;3.38;;;1.52;;
18194;SDS011;9223;50.988;3.162;2024-03-29T06:09:56;3.15;;;1.80;;
18194;SDS011;9223;50.988;3.162;2024-03-29T06:15:59;3.33;;;2.47;;
18194;SDS011;9223;50.988;3.162;2024-03-29T06:22:21;1.45;;;0.88;;
18194;SDS011;9223;50.988;3.162;2024-03-29T06:28:24;0.77;;;0.60;;
18194;SDS011;9223;50.988;3.162;2024-03-29T06:34:27;3.28;;;0.70;;
18194;SDS011;9223;50.988;3.162;2024-03-29T06:40:32;1.23;;;0.60;;
18194;SDS011;9223;50.988;3.162;2024-03-29T06:46:35;1.90;;;1.13;;
18194;SDS011;9223;50.988;3.162;2024-03-29T06:52:37;1.50;;;1.00;;
18194;SDS011;9223;50.988;3.162;2024-03-29T06:58:41;1.02;;;0.93;;
18194;SDS011;9223;50.988;3.162;2024-03-29T07:04:44;1.73;;;1.27;;
18194;SDS011;9223;50.988;3.162;2024-03-29T07:10:47;4.13;;;1.75;;
18194;SDS011;9223;50.988;3.162;2024-03-29T07:16:50;2.90;;;2.17;;
18194;SDS011;9223;50.988;3.162;2024-03-29T07:22:53;2.80;;;1.85;;
18194;SDS011;9223;50.988;3.162;2024-03-29T07:28:56;4.38;;;3.33;;
18194;SDS011;9223;50.988;3.162;2024-03-29T07:34:59;2.90;;;1.38;;
18194;SDS011;9223;50.988;3.162;2024-03-29T07:41:03;2.13;;;1.67;;
18194;SDS011;9223;50.988;3.162;2024-03-29T07:47:09;5.05;;;1.70;;
18194;SDS011;9223;50.988;3.162;2024-03-29T07:53:14;5.28;;;2.10;;
18194;SDS011;9223;50.988;3.162;2024-03-29T07:59:17;4.30;;;1.80;;
18194;SDS011;9223;50.988;3.162;2024-03-29T08:05:20;7.55;;;2.35;;
18194;SDS011;9223;50.988;3.162;2024-03-29T08:11:24;3.03;;;1.50;;
18194;SDS011;9223;50.988;3.162;2024-03-29T08:17:27;1.92;;;1.40;;
18194;SDS011;9223;50.988;3.162;2024-03-29T08:23:29;4.22;;;1.65;;
18194;SDS011;9223;50.988;3.162;2024-03-29T08:29:33;4.75;;;1.73;;
18194;SDS011;9223;50.988;3.162;2024-03-29T08:35:36;3.42;;;1.55;;
18194;SDS011;9223;50.988;3.162;2024-03-29T08:41:43;4.63;;;1.80;;
18194;SDS011;9223;50.988;3.162;2024-03-29T08:47:47;9.30;;;2.28;;
18194;SDS011;9223;50.988;3.162;2024-03-29T08:53:53;3.78;;;1.75;;
18194;SDS011;9223;50.988;3.162;2024-03-29T08:59:58;4.00;;;1.67;;
18194;SDS011;9223;50.988;3.162;2024-03-29T09:06:02;5.28;;;1.40;;
18194;SDS011;9223;50.988;3.162;2024-03-29T09:12:05;3.40;;;1.42;;
18194;SDS011;9223;50.988;3.162;2024-03-29T09:18:08;4.68;;;2.10;;
18194;SDS011;9223;50.988;3.162;2024-03-29T09:24:18;4.85;;;1.60;;
18194;SDS011;9223;50.988;3.162;2024-03-29T09:30:22;4.22;;;1.95;;
18194;SDS011;9223;50.988;3.162;2024-03-29T09:36:25;5.20;;;1.73;;
18194;SDS011;9223;50.988;3.162;2024-03-29T09:42:29;3.60;;;1.50;;
18194;SDS011;9223;50.988;3.162;2024-03-29T09:48:33;2.75;;;1.13;;
18194;SDS011;9223;50.988;3.162;2024-03-29T09:54:37;3.00;;;1.10;;
18194;SDS011;9223;50.988;3.162;2024-03-29T10:00:42;3.45;;;1.08;;
18194;SDS011;9223;50.988;3.162;2024-03-29T10:06:46;2.83;;;1.23;;
18194;SDS011;9223;50.988;3.162;2024-03-29T10:12:49;2.75;;;1.00;;
18194;SDS011;9223;50.988;3.162;2024-03-29T10:18:53;1.00;;;0.68;;
18194;SDS011;9223;50.988;3.162;2024-03-29T10:24:56;2.08;;;0.93;;
18194;SDS011;9223;50.988;3.162;2024-03-29T10:31:00;4.10;;;1.10;;
18194;SDS011;9223;50.988;3.162;2024-03-29T10:37:05;2.38;;;0.90;;
18194;SDS011;9223;50.988;3.162;2024-03-29T10:43:07;2.88;;;0.88;;
18194;SDS011;9223;50.988;3.162;2024-03-29T10:49:13;2.28;;;0.60;;
18194;SDS011;9223;50.988;3.162;2024-03-29T10:55:19;2.45;;;1.00;;
18194;SDS011;9223;50.988;3.162;2024-03-29T11:01:23;2.08;;;0.80;;
18194;SDS011;9223;50.988;3.162;2024-03-29T11:07:26;2.38;;;0.88;;
18194;SDS011;9223;50.988;3.162;2024-03-29T11:13:31;3.35;;;0.73;;
18194;SDS011;9223;50.988;3.162;2024-03-29T11:19:35;1.85;;;0.90;;
18194;SDS011;9223;50.988;3.162;2024-03-29T11:25:38;2.03;;;0.85;;
18194;SDS011;9223;50.988;3.162;2024-03-29T11:31:44;0.95;;;0.80;;
18194;SDS011;9223;50.988;3.162;2024-03-29T11:37:55;1.20;;;0.90;;
18194;SDS011;9223;50.988;3.162;2024-03-29T11:43:58;2.28;;;0.90;;
18194;SDS011;9223;50.988;3.162;2024-03-29T11:50:02;0.73;;;0.50;;
18194;SDS011;9223;50.988;3.162;2024-03-29T11:56:05;3.05;;;0.77;;
18194;SDS011;9223;50.988;3.162;2024-03-29T12:02:09;2.28;;;0.80;;
18194;SDS011;9223;50.988;3.162;2024-03-29T12:08:15;1.65;;;0.75;;
18194;SDS011;9223;50.988;3.162;2024-03-29T12:14:18;1.77;;;0.50;;
18194;SDS011;9223;50.988;3.162;2024-03-29T12:20:22;1.90;;;0.70;;
18194;SDS011;9223;50.988;3.162;2024-03-29T12:26:26;1.70;;;0.70;;
18194;SDS011;9223;50.988;3.162;2024-03-29T12:32:31;1.70;;;0.70;;
18194;SDS011;9223;50.988;3.162;2024-03-29T12:38:35;1.23;;;0.90;;
18194;SDS011;9223;50.988;3.162;2024-03-29T12:44:39;1.58;;;0.63;;
18194;SDS011;9223;50.988;3.162;2024-03-29T12:50:42;0.70;;;0.40;;
18194;SDS011;9223;50.988;3.162;2024-03-29T12:56:45;0.68;;;0.45;;
18194;SDS011;9223;50.988;3.162;2024-03-29T13:02:49;0.60;;;0.40;;
18194;SDS011;9223;50.988;3.162;2024-03-29T13:08:52;2.58;;;0.82;;
18194;SDS011;9223;50.988;3.162;2024-03-29T13:15:01;0.40;;;0.38;;
18194;SDS011;9223;50.988;3.162;2024-03-29T13:21:06;1.27;;;0.70;;
18194;SDS011;9223;50.988;3.162;2024-03-29T13:27:08;0.35;;;0.35;;
18194;SDS011;9223;50.988;3.162;2024-03-29T13:33:13;2.55;;;0.50;;
18194;SDS011;9223;50.988;3.162;2024-03-29T13:39:17;0.75;;;0.55;;
18194;SDS011;9223;50.988;3.162;2024-03-29T13:45:20;0.88;;;0.43;;
18194;SDS011;9223;50.988;3.162;2024-03-29T13:51:23;0.57;;;0.50;;
18194;SDS011;9223;50.988;3.162;2024-03-29T13:57:27;1.05;;;0.40;;
18194;SDS011;9223;50.988;3.162;2024-03-29T14:03:30;0.90;;;0.60;;
18194;SDS011;9223;50.988;3.162;2024-03-29T14:09:33;1.27;;;0.38;;
18194;SDS011;9223;50.988;3.162;2024-03-29T14:15:37;0.63;;;0.40;;
18194;SDS011;9223;50.988;3.162;2024-03-29T14:21:40;0.68;;;0.30;;
18194;SDS011;9223;50.988;3.162;2024-03-29T14:27:43;0.60;;;0.38;;
18194;SDS011;9223;50.988;3.162;2024-03-29T14:33:49;1.00;;;0.30;;
18194;SDS011;9223;50.988;3.162;2024-03-29T14:39:52;1.95;;;0.60;;
18194;SDS011;9223;50.988;3.162;2024-03-29T14:45:54;2.72;;;0.73;;
18194;SDS011;9223;50.988;3.162;2024-03-29T14:51:58;0.40;;;0.30;;
18194;SDS011;9223;50.988;3.162;2024-03-29T14:58:01;1.27;;;0.50;;
18194;SDS011;9223;50.988;3.162;2024-03-29T15:04:04;1.33;;;0.38;;
18194;SDS011;9223;50.988;3.162;2024-03-29T15:10:08;2.70;;;0.50;;
18194;SDS011;9223;50.988;3.162;2024-03-29T15:16:11;1.48;;;0.43;;
18194;SDS011;9223;50.988;3.162;2024-03-29T15:22:14;2.05;;;0.50;;
18194;SDS011;9223;50.988;3.162;2024-03-29T15:28:18;0.85;;;0.40;;
18194;SDS011;9223;50.988;3.162;2024-03-29T15:34:38;3.47;;;1.13;;
18194;SDS011;9223;50.988;3.162;2024-03-29T15:40:40;1.63;;;0.52;;
18194;SDS011;9223;50.988;3.162;2024-03-29T15:46:44;2.88;;;0.43;;
18194;SDS011;9223;50.988;3.162;2024-03-29T15:52:48;1.20;;;0.50;;
18194;SDS011;9223;50.988;3.162;2024-03-29T15:58:50;1.20;;;0.60;;
18194;SDS011;9223;50.988;3.162;2024-03-29T16:04:55;1.30;;;0.57;;
18194;SDS011;9223;50.988;3.162;2024-03-29T16:10:58;2.25;;;0.50;;
18194;SDS011;9223;50.988;3.162;2024-03-29T16:17:01;2.05;;;0.50;;
18194;SDS011;9223;50.988;3.162;2024-03-29T16:23:05;2.25;;;0.40;;
18194;SDS011;9223;50.988;3.162;2024-03-29T16:29:08;1.98;;;0.50;;
18194;SDS011;9223;50.988;3.162;2024-03-29T16:35:14;2.80;;;0.70;;
18194;SDS011;9223;50.988;3.162;2024-03-29T16:41:18;1.10;;;0.40;;
18194;SDS011;9223;50.988;3.162;2024-03-29T16:47:20;1.08;;;0.50;;
18194;SDS011;9223;50.988;3.162;2024-03-29T16:53:23;2.28;;;0.70;;
18194;SDS011;9223;50.988;3.162;2024-03-29T16:59:27;2.33;;;0.60;;
18194;SDS011;9223;50.988;3.162;2024-03-29T17:05:30;1.95;;;0.45;;
18194;SDS011;9223;50.988;3.162;2024-03-29T17:11:32;1.65;;;0.52;;
18194;SDS011;9223;50.988;3.162;2024-03-29T17:17:37;2.47;;;0.57;;
18194;SDS011;9223;50.988;3.162;2024-03-29T17:23:39;2.45;;;0.65;;
18194;SDS011;9223;50.988;3.162;2024-03-29T17:29:42;4.70;;;2.67;;
18194;SDS011;9223;50.988;3.162;2024-03-29T17:35:46;2.38;;;1.15;;
18194;SDS011;9223;50.988;3.162;2024-03-29T17:41:49;2.55;;;1.30;;
18194;SDS011;9223;50.988;3.162;2024-03-29T17:47:52;2.80;;;1.00;;
18194;SDS011;9223;50.988;3.162;2024-03-29T17:53:56;6.20;;;1.67;;
18194;SDS011;9223;50.988;3.162;2024-03-29T17:59:59;2.90;;;1.05;;
18194;SDS011;9223;50.988;3.162;2024-03-29T18:06:06;3.08;;;1.30;;
18194;SDS011;9223;50.988;3.162;2024-03-29T18:12:10;3.05;;;1.38;;
18194;SDS011;9223;50.988;3.162;2024-03-29T18:18:13;1.42;;;1.30;;
18194;SDS011;9223;50.988;3.162;2024-03-29T18:24:16;2.13;;;1.20;;
18194;SDS011;9223;50.988;3.162;2024-03-29T18:30:20;1.45;;;1.00;;
18194;SDS011;9223;50.988;3.162;2024-03-29T18:36:25;3.38;;;1.13;;
18194;SDS011;9223;50.988;3.162;2024-03-29T18:42:28;1.42;;;1.00;;
18194;SDS011;9223;50.988;3.162;2024-03-29T18:48:31;1.08;;;0.90;;
18194;SDS011;9223;50.988;3.162;2024-03-29T18:54:34;3.75;;;1.42;;
18194;SDS011;9223;50.988;3.162;2024-03-29T19:00:37;3.38;;;1.75;;
18194;SDS011;9223;50.988;3.162;2024-03-29T19:06:40;3.75;;;1.80;;
18194;SDS011;9223;50.988;3.162;2024-03-29T19:12:43;6.53;;;1.83;;
18194;SDS011;9223;50.988;3.162;2024-03-29T19:18:46;8.77;;;2.10;;
18194;SDS011;9223;50.988;3.162;2024-03-29T19:24:51;1.67;;;1.50;;
18194;SDS011;9223;50.988;3.162;2024-03-29T19:30:54;3.30;;;2.00;;
18194;SDS011;9223;50.988;3.162;2024-03-29T19:36:56;5.50;;;2.22;;
18194;SDS011;9223;50.988;3.162;2024-03-29T19:43:01;7.32;;;3.22;;
18194;SDS011;9223;50.988;3.162;2024-03-29T19:49:05;3.95;;;3.00;;
18194;SDS011;9223;50.988;3.162;2024-03-29T19:55:08;3.42;;;2.33;;
18194;SDS011;9223;50.988;3.162;2024-03-29T20:01:12;2.58;;;2.03;;
18194;SDS011;9223;50.988;3.162;2024-03-29T20:07:14;2.58;;;1.90;;
18194;SDS011;9223;50.988;3.162;2024-03-29T20:13:17;3.55;;;1.80;;
18194;SDS011;9223;50.988;3.162;2024-03-29T20:19:21;2.95;;;2.25;;
18194;SDS011;9223;50.988;3.162;2024-03-29T20:25:27;3.40;;;1.98;;
18194;SDS011;9223;50.988;3.162;2024-03-29T20:31:29;3.78;;;2.35;;
18194;SDS011;9223;50.988;3.162;2024-03-29T20:37:33;2.30;;;2.03;;
18194;SDS011;9223;50.988;3.162;2024-03-29T20:43:36;2.30;;;2.00;;
18194;SDS011;9223;50.988;3.162;2024-03-29T20:49:38;4.13;;;2.28;;
18194;SDS011;9223;50.988;3.162;2024-03-29T20:55:42;3.42;;;2.15;;
18194;SDS011;9223;50.988;3.162;2024-03-29T21:01:45;2.33;;;1.90;;
18194;SDS011;9223;50.988;3.162;2024-03-29T21:08:05;2.95;;;1.90;;
18194;SDS011;9223;50.988;3.162;2024-03-29T21:14:09;1.67;;;1.40;;
18194;SDS011;9223;50.988;3.162;2024-03-29T21:20:12;2.67;;;1.00;;
18194;SDS011;9223;50.988;3.162;2024-03-29T21:26:15;1.80;;;1.20;;
18194;SDS011;9223;50.988;3.162;2024-03-29T21:32:18;2.25;;;1.00;;
18194;SDS011;9223;50.988;3.162;2024-03-29T21:38:21;4.93;;;0.70;;
18194;SDS011;9223;50.988;3.162;2024-03-29T21:44:23;1.50;;;0.70;;
18194;SDS011;9223;50.988;3.162;2024-03-29T21:50:27;0.77;;;0.60;;
18194;SDS011;9223;50.988;3.162;2024-03-29T21:56:30;1.50;;;1.08;;
18194;SDS011;9223;50.988;3.162;2024-03-29T22:02:33;1.40;;;1.10;;
18194;SDS011;9223;50.988;3.162;2024-03-29T22:08:37;1.20;;;0.50;;
18194;SDS011;9223;50.988;3.162;2024-03-29T22:14:39;0.60;;;0.60;;
18194;SDS011;9223;50.988;3.162;2024-03-29T22:20:42;3.50;;;0.60;;
18194;SDS011;9223;50.988;3.162;2024-03-29T22:26:45;0.40;;;0.40;;
18194;SDS011;9223;50.988;3.162;2024-03-29T22:32:48;1.05;;;0.63;;
18194;SDS011;9223;50.988;3.162;2024-03-29T22:38:51;0.80;;;0.43;;
18194;SDS011;9223;50.988;3.162;2024-03-29T22:44:55;0.98;;;0.68;;
18194;SDS011;9223;50.988;3.162;2024-03-29T22:50:58;1.13;;;0.70;;
18194;SDS011;9223;50.988;3.162;2024-03-29T22:57:00;2.38;;;0.75;;
18194;SDS011;9223;50.988;3.162;2024-03-29T23:03:04;1.38;;;0.77;;
18194;SDS011;9223;50.988;3.162;2024-03-29T23:09:07;2.05;;;0.77;;
18194;SDS011;9223;50.988;3.162;2024-03-29T23:15:11;1.38;;;0.70;;
18194;SDS011;9223;50.988;3.162;2024-03-29T23:21:15;0.80;;;0.50;;
18194;SDS011;9223;50.988;3.162;2024-03-29T23:27:18;1.15;;;0.70;;
18194;SDS011;9223;50.988;3.162;2024-03-29T23:33:20;0.80;;;0.60;;
18194;SDS011;9223;50.988;3.162;2024-03-29T23:39:28;1.05;;;0.88;;
18194;SDS011;9223;50.988;3.162;2024-03-29T23:45:30;1.25;;;0.60;;
18194;SDS011;9223;50.988;3.162;2024-03-29T23:51:33;1.50;;;0.60;;
18194;SDS011;9223;50.988;3.162;2024-03-29T23:57:36;0.73;;;0.50;;
